Time;durP1;ratioP1;P1;durP2;ratioP2;P2;SDS_P1;SDS_P2;PMS_P1;PMS_P2;Temp;Humidity;BMP_temperature;BMP_pressure;BME280_temperature;BME280_humidity;BME280_pressure;Samples;Min_cycle;Max_cycle;Signal;HPM_P1;HPM_P2
2023/04/25 00:01:57;;;;;;;14.40;11.90;;;;;;;10.92;68.04;99260.02;103825;277;175182;-77
2023/04/25 00:04:33;;;;;;;14.30;12.90;;;;;;;10.91;68.14;99255.16;103701;277;40419;-73
2023/04/25 00:07:07;;;;;;;13.90;12.50;;;;;;;10.90;68.25;99254.00;103895;277;38274;-73
2023/04/25 00:09:41;;;;;;;14.90;13.30;;;;;;;10.88;68.37;99256.95;103953;277;38768;-75
2023/04/25 00:12:15;;;;;;;14.80;13.30;;;;;;;10.84;68.50;99258.20;103665;277;38635;-73
2023/04/25 00:14:49;;;;;;;16.10;12.50;;;;;;;10.80;68.87;99262.44;103767;277;38763;-74
2023/04/25 00:17:24;;;;;;;11.60;10.40;;;;;;;10.77;69.02;99260.67;103780;277;174998;-77
2023/04/25 00:19:58;;;;;;;14.10;12.20;;;;;;;10.76;69.11;99260.42;103792;277;174891;-74
2023/04/25 00:22:32;;;;;;;15.00;12.00;;;;;;;10.75;69.45;99259.40;103958;277;38467;-75
2023/04/25 00:25:06;;;;;;;15.70;13.00;;;;;;;10.73;69.54;99257.40;103937;277;38451;-73
2023/04/25 00:27:41;;;;;;;15.20;13.60;;;;;;;10.73;69.96;99256.20;103976;277;38368;-74
2023/04/25 00:30:17;;;;;;;15.10;11.70;;;;;;;10.69;69.89;99259.19;103522;277;174828;-73
2023/04/25 00:32:51;;;;;;;12.30;11.10;;;;;;;10.67;70.23;99260.91;103911;277;38777;-75
2023/04/25 00:35:25;;;;;;;13.80;12.40;;;;;;;10.64;70.27;99267.68;103750;279;40398;-75
2023/04/25 00:38:00;;;;;;;13.10;11.80;;;;;;;10.65;70.37;99264.14;103939;277;38971;-75
2023/04/25 00:40:34;;;;;;;15.00;12.80;;;;;;;10.64;70.59;99260.70;103918;277;38603;-75
2023/04/25 00:43:08;;;;;;;16.80;13.60;;;;;;;10.61;70.81;99255.46;103943;277;38745;-73
2023/04/25 00:45:43;;;;;;;16.90;13.10;;;;;;;10.59;71.05;99257.16;103942;277;38246;-74
2023/04/25 00:48:17;;;;;;;14.30;12.80;;;;;;;10.57;71.02;99256.73;103961;277;38418;-74
2023/04/25 00:50:54;;;;;;;18.60;13.20;;;;;;;10.55;71.35;99258.96;103774;279;38776;-74
2023/04/25 00:53:29;;;;;;;16.00;14.00;;;;;;;10.52;71.55;99260.86;103931;277;38390;-73
2023/04/25 00:56:03;;;;;;;15.50;13.90;;;;;;;10.50;71.68;99261.33;103888;277;39829;-74
2023/04/25 00:58:37;;;;;;;16.40;14.40;;;;;;;10.46;71.78;99264.15;103890;277;40102;-74
2023/04/25 01:01:11;;;;;;;17.00;14.50;;;;;;;10.42;71.88;99270.83;103908;277;38791;-74
2023/04/25 01:03:45;;;;;;;14.20;12.50;;;;;;;10.42;71.99;99268.77;103885;277;38404;-75
2023/04/25 01:06:19;;;;;;;14.80;13.20;;;;;;;10.43;72.20;99266.23;103878;277;39885;-76
2023/04/25 01:08:53;;;;;;;17.70;13.50;;;;;;;10.47;72.51;99263.42;103876;277;38223;-76
2023/04/25 01:11:27;;;;;;;17.30;14.50;;;;;;;10.49;72.65;99262.80;103851;277;38491;-77
2023/04/25 01:14:01;;;;;;;18.00;15.40;;;;;;;10.50;72.77;99263.40;103792;277;175283;-73
2023/04/25 01:16:36;;;;;;;16.60;14.90;;;;;;;10.50;72.99;99260.98;103850;277;38815;-74
2023/04/25 01:19:12;;;;;;;16.10;14.40;;;;;;;10.50;73.01;99260.47;103906;277;39555;-75
2023/04/25 01:21:46;;;;;;;16.40;14.50;;;;;;;10.51;73.44;99261.63;103842;277;38284;-75
2023/04/25 01:24:20;;;;;;;17.90;15.20;;;;;;;10.52;73.58;99260.69;103780;278;38376;-76
2023/04/25 01:26:56;;;;;;;18.80;16.00;;;;;;;10.55;73.84;99263.30;103823;278;38817;-73
2023/04/25 01:29:30;;;;;;;18.10;15.60;;;;;;;10.55;74.17;99264.52;103851;318;38307;-77
2023/04/25 01:32:04;;;;;;;15.40;13.80;;;;;;;10.59;74.62;99266.23;103813;278;40430;-75
2023/04/25 01:34:37;;;;;;;15.50;13.70;;;;;;;10.63;74.65;99261.47;103444;278;530246;-73
2023/04/25 01:37:11;;;;;;;17.40;14.30;;;;;;;10.67;74.40;99259.17;103774;278;40495;-75
2023/04/25 01:39:45;;;;;;;15.60;14.00;;;;;;;10.68;74.29;99259.81;103797;278;38368;-76
2023/04/25 01:42:19;;;;;;;17.10;14.80;;;;;;;10.67;74.56;99258.27;103775;278;39580;-74
2023/04/25 01:44:53;;;;;;;14.60;12.70;;;;;;;10.68;74.73;99255.94;103840;278;38377;-75
2023/04/25 01:47:28;;;;;;;15.60;14.00;;;;;;;10.67;74.90;99258.79;103819;278;39572;-77
2023/04/25 01:50:02;;;;;;;15.80;14.10;;;;;;;10.67;74.68;99263.14;103763;278;38868;-75
2023/04/25 01:52:36;;;;;;;15.00;13.40;;;;;;;10.68;74.62;99262.61;103807;278;40144;-74
2023/04/25 01:55:12;;;;;;;14.80;12.80;;;;;;;10.67;74.56;99261.23;103796;278;38603;-74
2023/04/25 01:57:46;;;;;;;14.40;12.80;;;;;;;10.67;74.89;99259.35;103827;278;40043;-75
2023/04/25 02:00:21;;;;;;;14.80;12.70;;;;;;;10.66;74.99;99256.27;103807;278;38414;-75
2023/04/25 02:02:55;;;;;;;15.70;13.20;;;;;;;10.64;74.91;99254.27;103801;278;38403;-75
2023/04/25 02:05:29;;;;;;;15.60;14.00;;;;;;;10.64;74.97;99251.30;103803;278;39687;-73
2023/04/25 02:08:03;;;;;;;16.70;13.20;;;;;;;10.62;75.35;99254.40;103801;278;39341;-75
2023/04/25 02:10:36;;;;;;;14.20;12.80;;;;;;;10.61;75.31;99254.64;103652;278;39738;-76
2023/04/25 02:13:10;;;;;;;15.60;13.30;;;;;;;10.61;75.62;99256.71;103841;278;38745;-74
2023/04/25 02:15:44;;;;;;;14.90;13.30;;;;;;;10.61;75.59;99254.77;103699;278;175202;-73
2023/04/25 02:18:18;;;;;;;15.50;13.90;;;;;;;10.62;75.95;99255.81;103771;278;38949;-74
2023/04/25 02:20:52;;;;;;;15.90;13.10;;;;;;;10.61;75.83;99255.48;103789;278;38947;-73
2023/04/25 02:23:26;;;;;;;16.10;13.10;;;;;;;10.62;75.97;99258.76;103807;278;38279;-75
2023/04/25 02:26:00;;;;;;;14.60;12.30;;;;;;;10.62;76.18;99256.46;103784;278;39871;-75
2023/04/25 02:28:34;;;;;;;14.50;12.80;;;;;;;10.61;76.19;99251.50;103586;279;188565;-75
2023/04/25 02:31:08;;;;;;;14.60;13.10;;;;;;;10.60;76.29;99247.88;103815;277;39683;-76
2023/04/25 02:33:42;;;;;;;16.30;13.10;;;;;;;10.57;76.47;99245.71;103842;277;38744;-76
2023/04/25 02:36:16;;;;;;;13.20;11.80;;;;;;;10.57;76.75;99240.68;103767;278;38560;-76
2023/04/25 02:38:50;;;;;;;13.70;12.30;;;;;;;10.56;76.80;99239.00;103805;278;38265;-73
2023/04/25 02:41:24;;;;;;;14.60;12.80;;;;;;;10.57;77.04;99237.77;103794;278;38501;-75
2023/04/25 02:43:58;;;;;;;13.50;12.20;;;;;;;10.56;76.96;99243.02;103852;277;38289;-74
2023/04/25 02:46:32;;;;;;;14.50;12.60;;;;;;;10.54;76.79;99243.48;103799;266;38843;-74
2023/04/25 02:49:06;;;;;;;12.70;11.40;;;;;;;10.52;76.84;99241.66;103811;278;38643;-75
2023/04/25 02:51:40;;;;;;;12.70;11.20;;;;;;;10.51;76.52;99243.48;103809;278;38524;-77
2023/04/25 02:54:13;;;;;;;13.30;12.00;;;;;;;10.49;77.04;99246.73;103779;278;38376;-76
2023/04/25 02:56:47;;;;;;;14.20;12.70;;;;;;;10.47;77.36;99244.74;103762;278;38221;-73
2023/04/25 02:59:21;;;;;;;13.40;11.50;;;;;;;10.42;77.14;99250.45;103845;278;38230;-74
2023/04/25 03:01:56;;;;;;;12.90;10.90;;;;;;;10.39;77.05;99247.45;103774;278;39560;-76
2023/04/25 03:04:30;;;;;;;12.40;11.00;;;;;;;10.37;77.11;99247.08;103770;267;38967;-75
2023/04/25 03:07:05;;;;;;;12.30;10.90;;;;;;;10.36;77.64;99244.52;103795;278;38228;-75
2023/04/25 03:09:38;;;;;;;14.10;11.80;;;;;;;10.35;77.16;99244.19;103769;278;39844;-74
2023/04/25 03:12:12;;;;;;;13.10;11.00;;;;;;;10.32;77.43;99240.36;103778;278;39679;-74
2023/04/25 03:14:46;;;;;;;11.30;10.10;;;;;;;10.31;77.42;99237.61;103793;278;39442;-75
2023/04/25 03:17:20;;;;;;;11.80;10.30;;;;;;;10.33;77.53;99236.80;103788;278;39014;-75
2023/04/25 03:19:54;;;;;;;11.40;10.40;;;;;;;10.37;77.47;99236.09;103801;278;38230;-74
2023/04/25 03:22:30;;;;;;;13.20;11.60;;;;;;;10.38;77.62;99237.21;103802;278;38511;-74
2023/04/25 03:25:04;;;;;;;10.40;9.40;;;;;;;10.42;77.71;99240.02;103783;278;38254;-76
2023/04/25 03:27:39;;;;;;;9.80;8.80;;;;;;;10.46;77.88;99241.50;103801;278;38821;-75
2023/04/25 03:30:14;;;;;;;10.50;9.30;;;;;;;10.51;78.05;99242.23;103859;278;38489;-74
2023/04/25 03:32:48;;;;;;;10.80;9.60;;;;;;;10.55;78.03;99245.16;103773;278;38263;-74
2023/04/25 03:35:23;;;;;;;10.40;9.40;;;;;;;10.59;78.03;99247.55;103802;278;38886;-72
2023/04/25 03:37:57;;;;;;;10.50;9.10;;;;;;;10.64;78.25;99248.67;103806;278;38501;-74
2023/04/25 03:40:31;;;;;;;9.50;8.60;;;;;;;10.70;78.28;99249.20;103736;266;39757;-75
2023/04/25 03:43:05;;;;;;;13.60;9.40;;;;;;;10.76;78.19;99249.57;103811;278;38981;-75
2023/04/25 03:45:39;;;;;;;10.70;9.50;;;;;;;10.79;78.33;99253.05;103797;278;38454;-75
2023/04/25 03:48:14;;;;;;;10.90;9.50;;;;;;;10.84;78.50;99253.78;103784;278;39619;-74
2023/04/25 03:50:47;;;;;;;11.20;9.00;;;;;;;10.90;78.52;99255.45;103812;278;38836;-76
2023/04/25 03:53:21;;;;;;;12.60;9.20;;;;;;;10.96;78.62;99255.80;103810;278;38880;-73
2023/04/25 03:55:55;;;;;;;10.20;8.50;;;;;;;11.03;78.64;99257.64;103176;278;907252;-73
2023/04/25 03:58:29;;;;;;;9.30;8.40;;;;;;;11.07;78.64;99262.60;103827;278;38991;-75
2023/04/25 04:01:07;;;;;;;10.20;9.00;;;;;;;11.15;79.04;99266.71;103829;278;38242;-75
2023/04/25 04:03:41;;;;;;;9.60;8.50;;;;;;;11.21;78.80;99267.24;103846;278;38364;-73
2023/04/25 04:06:14;;;;;;;9.80;8.80;;;;;;;11.26;78.68;99267.13;103804;278;39261;-76
2023/04/25 04:08:48;;;;;;;8.80;7.90;;;;;;;11.31;78.94;99270.48;103861;278;39292;-75
2023/04/25 04:11:23;;;;;;;9.50;8.30;;;;;;;11.36;78.78;99272.83;103755;278;38247;-73
2023/04/25 04:13:57;;;;;;;9.60;8.60;;;;;;;11.40;79.03;99274.30;103779;278;38836;-74
2023/04/25 04:16:31;;;;;;;10.00;8.80;;;;;;;11.44;78.86;99278.11;103799;278;40050;-73
2023/04/25 04:19:05;;;;;;;8.40;7.60;;;;;;;11.50;79.07;99277.19;103816;278;38569;-76
2023/04/25 04:21:39;;;;;;;8.60;7.80;;;;;;;11.56;78.96;99281.40;103817;274;39710;-75
2023/04/25 04:24:13;;;;;;;9.10;8.00;;;;;;;11.60;78.97;99278.52;103805;277;39766;-75
2023/04/25 04:26:47;;;;;;;8.80;7.90;;;;;;;11.65;79.38;99279.27;103821;278;39699;-75
2023/04/25 04:29:23;;;;;;;11.60;8.10;;;;;;;11.68;79.22;99281.25;103706;278;175210;-74
2023/04/25 04:31:58;;;;;;;9.50;7.90;;;;;;;11.72;79.33;99290.77;103876;278;38212;-76
2023/04/25 04:34:33;;;;;;;7.50;6.80;;;;;;;11.75;79.35;99289.56;103851;278;39392;-77
2023/04/25 04:37:09;;;;;;;8.60;7.80;;;;;;;11.79;79.36;99291.92;103852;278;39885;-79
2023/04/25 04:39:43;;;;;;;8.80;7.70;;;;;;;11.82;79.49;99295.05;103854;277;38301;-76
2023/04/25 04:42:18;;;;;;;9.10;7.60;;;;;;;11.81;79.59;99288.45;103821;278;39824;-77
2023/04/25 04:44:54;;;;;;;7.60;6.70;;;;;;;11.83;79.62;99287.83;103860;278;39135;-77
2023/04/25 04:47:32;;;;;;;8.10;7.30;;;;;;;11.83;79.95;99281.88;103826;278;39608;-77
2023/04/25 04:50:14;;;;;;;8.10;7.40;;;;;;;11.83;79.78;99280.32;103652;279;38922;-75
2023/04/25 04:52:50;;;;;;;9.60;7.50;;;;;;;11.87;79.87;99288.65;103808;278;38226;-75
2023/04/25 04:55:24;;;;;;;8.00;7.20;;;;;;;11.91;79.80;99284.41;103809;278;38248;-75
2023/04/25 04:57:58;;;;;;;7.60;6.90;;;;;;;11.97;79.69;99285.11;103656;279;38257;-74
2023/04/25 05:00:32;;;;;;;6.90;6.30;;;;;;;12.04;79.58;99288.65;103786;278;38541;-75
2023/04/25 05:03:07;;;;;;;8.40;7.10;;;;;;;12.09;79.55;99293.64;103828;278;38552;-77
2023/04/25 05:05:41;;;;;;;7.80;7.10;;;;;;;12.12;79.37;99294.48;103795;318;39389;-76
2023/04/25 05:08:16;;;;;;;7.60;6.70;;;;;;;12.13;79.37;99294.74;103835;278;38229;-74
2023/04/25 05:10:50;;;;;;;7.70;6.90;;;;;;;12.15;79.28;99292.69;103805;278;38068;-73
2023/04/25 05:13:24;;;;;;;7.30;6.60;;;;;;;12.17;79.29;99292.63;103706;278;38307;-74
2023/04/25 05:15:58;;;;;;;7.50;6.90;;;;;;;12.16;79.47;99290.02;103827;278;38739;-76
2023/04/25 05:18:31;;;;;;;7.20;6.50;;;;;;;12.15;79.18;99292.16;103757;278;39415;-77
2023/04/25 05:21:05;;;;;;;7.10;6.40;;;;;;;12.16;79.06;99293.70;103812;278;39767;-75
2023/04/25 05:23:39;;;;;;;6.80;6.10;;;;;;;12.20;79.07;99297.31;103791;279;38752;-76
2023/04/25 05:26:14;;;;;;;6.90;6.30;;;;;;;12.22;79.06;99298.92;103819;278;38883;-76
2023/04/25 05:28:48;;;;;;;7.60;6.70;;;;;;;12.21;78.94;99300.21;103833;278;38669;-75
2023/04/25 05:31:22;;;;;;;7.20;6.50;;;;;;;12.17;78.85;99301.36;103794;278;38263;-76
2023/04/25 05:33:55;;;;;;;6.70;6.00;;;;;;;12.12;78.87;99301.63;103723;278;38356;-78
2023/04/25 05:36:30;;;;;;;7.20;6.50;;;;;;;12.12;79.08;99307.55;103807;278;38361;-76
2023/04/25 05:39:05;;;;;;;6.70;6.00;;;;;;;12.11;79.12;99310.45;103825;277;38666;-76
2023/04/25 05:41:39;;;;;;;6.40;5.80;;;;;;;12.08;79.12;99315.33;103790;278;39928;-76
2023/04/25 05:44:13;;;;;;;7.00;6.30;;;;;;;12.08;79.29;99314.98;103811;278;39448;-74
2023/04/25 05:46:47;;;;;;;7.40;6.60;;;;;;;12.06;79.14;99316.69;103754;278;39430;-74
2023/04/25 05:49:21;;;;;;;6.20;5.60;;;;;;;12.05;79.00;99320.23;103826;278;39832;-76
2023/04/25 05:51:55;;;;;;;6.80;6.10;;;;;;;12.08;79.07;99315.49;103829;278;38829;-75
2023/04/25 05:54:29;;;;;;;6.90;6.40;;;;;;;12.10;79.13;99314.14;103816;278;39437;-74
2023/04/25 05:57:03;;;;;;;7.80;7.10;;;;;;;12.14;79.30;99313.42;103825;278;38265;-75
2023/04/25 05:59:36;;;;;;;7.30;6.60;;;;;;;12.14;79.38;99310.61;103808;278;40187;-77
2023/04/25 06:02:10;;;;;;;7.00;6.20;;;;;;;12.19;79.46;99315.36;103799;278;40454;-77
2023/04/25 06:04:44;;;;;;;7.10;6.40;;;;;;;12.26;79.56;99317.23;103668;278;39405;-76
2023/04/25 06:07:18;;;;;;;6.90;6.30;;;;;;;12.32;79.66;99320.65;103772;274;38369;-77
2023/04/25 06:09:53;;;;;;;7.90;7.20;;;;;;;12.36;79.48;99323.92;103749;278;38486;-76
2023/04/25 06:12:27;;;;;;;7.70;7.00;;;;;;;12.36;79.07;99325.17;103816;278;38324;-77
2023/04/25 06:15:01;;;;;;;7.00;6.30;;;;;;;12.35;78.96;99327.14;103804;266;38266;-76
2023/04/25 06:17:35;;;;;;;6.90;6.30;;;;;;;12.33;78.77;99329.37;103798;278;38467;-75
2023/04/25 06:20:13;;;;;;;8.30;7.70;;;;;;;12.30;78.76;99331.30;103807;278;38437;-74
2023/04/25 06:22:47;;;;;;;9.00;8.10;;;;;;;12.24;78.69;99331.84;103789;278;38278;-75
2023/04/25 06:25:21;;;;;;;8.60;7.90;;;;;;;12.24;79.05;99333.77;103772;278;39380;-76
2023/04/25 06:27:55;;;;;;;7.80;7.20;;;;;;;12.21;78.90;99337.14;103687;278;39021;-76
2023/04/25 06:30:29;;;;;;;8.10;7.40;;;;;;;12.19;79.06;99338.43;103824;278;39428;-75
2023/04/25 06:33:03;;;;;;;9.20;8.50;;;;;;;12.19;78.89;99345.11;103655;278;39449;-76
2023/04/25 06:35:37;;;;;;;9.60;8.70;;;;;;;12.18;78.94;99352.19;103803;278;39526;-74
2023/04/25 06:38:11;;;;;;;8.40;7.70;;;;;;;12.15;78.83;99358.13;103800;278;38531;-74
2023/04/25 06:40:46;;;;;;;6.90;6.30;;;;;;;12.12;78.84;99370.00;103797;278;38299;-75
2023/04/25 06:43:19;;;;;;;7.30;6.60;;;;;;;12.09;78.64;99378.94;103805;278;38268;-77
2023/04/25 06:45:53;;;;;;;6.70;6.00;;;;;;;12.07;78.59;99390.02;103766;278;38618;-74
2023/04/25 06:48:27;;;;;;;7.60;7.00;;;;;;;12.05;78.53;99393.51;103807;278;38354;-77
2023/04/25 06:51:01;;;;;;;8.70;7.40;;;;;;;11.99;78.65;99393.14;103817;278;38265;-75
2023/04/25 06:53:35;;;;;;;7.30;6.60;;;;;;;11.96;78.89;99389.18;103790;278;39467;-76
2023/04/25 06:56:09;;;;;;;6.50;5.10;;;;;;;11.92;78.88;99381.51;103810;278;38320;-75
2023/04/25 06:58:43;;;;;;;6.70;6.00;;;;;;;11.93;78.93;99374.15;103848;278;39677;-77
2023/04/25 07:01:17;;;;;;;7.50;6.20;;;;;;;11.86;78.41;99373.27;103762;278;38475;-76
2023/04/25 07:03:51;;;;;;;6.00;5.40;;;;;;;11.82;78.56;99363.73;103814;278;38252;-75
2023/04/25 07:06:27;;;;;;;5.50;4.90;;;;;;;11.85;78.86;99369.31;103806;278;39778;-74
2023/04/25 07:09:01;;;;;;;6.10;5.50;;;;;;;11.94;79.15;99368.63;103794;278;38343;-76
2023/04/25 07:11:35;;;;;;;5.90;5.00;;;;;;;12.04;79.48;99366.95;103491;281;38182;-75
2023/04/25 07:14:09;;;;;;;7.30;5.20;;;;;;;12.17;79.24;99368.80;103811;278;40416;-76
2023/04/25 07:16:43;;;;;;;5.70;5.20;;;;;;;12.28;79.66;99365.20;103810;278;40231;-76
2023/04/25 07:19:17;;;;;;;5.70;5.00;;;;;;;12.44;79.78;99361.95;103808;278;39996;-73
2023/04/25 07:21:50;;;;;;;5.50;5.00;;;;;;;12.70;80.58;99364.65;103816;278;38386;-72
2023/04/25 07:24:24;;;;;;;7.60;5.70;;;;;;;13.01;80.83;99361.65;103201;278;902031;-77
2023/04/25 07:26:59;;;;;;;5.80;5.30;;;;;;;13.30;80.17;99363.31;103808;278;38770;-75
2023/04/25 07:29:36;;;;;;;6.30;5.70;;;;;;;13.56;79.66;99362.51;103828;278;38959;-73
2023/04/25 07:32:12;;;;;;;6.20;5.60;;;;;;;13.78;78.80;99359.44;103798;278;38410;-76
2023/04/25 07:34:46;;;;;;;5.80;5.30;;;;;;;13.94;78.10;99359.25;103638;278;38726;-75
2023/04/25 07:37:20;;;;;;;5.30;4.40;;;;;;;14.11;77.43;99360.89;103661;278;38480;-74
2023/04/25 07:39:54;;;;;;;4.70;4.30;;;;;;;14.27;76.14;99359.25;103850;277;38234;-75
2023/04/25 07:42:31;;;;;;;5.60;4.60;;;;;;;14.46;75.55;99358.13;103774;278;38505;-74
2023/04/25 07:45:07;;;;;;;5.00;4.50;;;;;;;14.62;74.81;99361.20;103674;278;38243;-71
2023/04/25 07:47:41;;;;;;;5.30;4.70;;;;;;;14.79;74.95;99363.53;103853;278;39473;-75
2023/04/25 07:50:16;;;;;;;6.30;5.70;;;;;;;14.96;74.05;99362.06;103700;278;174956;-76
2023/04/25 07:52:49;;;;;;;6.60;5.60;;;;;;;15.11;73.16;99367.17;103802;266;38286;-76
2023/04/25 07:55:23;;;;;;;6.30;5.70;;;;;;;15.19;72.68;99367.83;103797;278;38585;-74
2023/04/25 07:57:57;;;;;;;6.50;6.00;;;;;;;15.33;72.93;99370.09;103835;275;38240;-76
2023/04/25 08:00:33;;;;;;;6.90;6.30;;;;;;;15.35;71.62;99368.05;103804;278;38433;-73
2023/04/25 08:03:07;;;;;;;6.60;6.00;;;;;;;15.21;70.49;99373.08;103739;278;177244;-73
2023/04/25 08:05:41;;;;;;;6.60;6.10;;;;;;;15.07;70.39;99374.30;103847;278;38408;-77
2023/04/25 08:08:15;;;;;;;6.90;6.40;;;;;;;15.00;70.52;99375.90;103867;278;39467;-75
2023/04/25 08:10:50;;;;;;;6.50;6.00;;;;;;;15.02;70.99;99372.95;103816;278;39116;-77
2023/04/25 08:13:24;;;;;;;6.80;6.30;;;;;;;15.09;70.94;99377.52;103841;278;38539;-74
2023/04/25 08:15:58;;;;;;;6.00;5.60;;;;;;;15.03;70.18;99376.01;103822;277;39585;-74
2023/04/25 08:18:32;;;;;;;5.30;4.90;;;;;;;14.92;70.01;99375.89;103722;278;39383;-74
2023/04/25 08:21:06;;;;;;;5.60;5.00;;;;;;;14.74;69.30;99379.29;103783;278;40149;-76
2023/04/25 08:23:41;;;;;;;6.10;5.60;;;;;;;14.54;69.34;99382.81;103700;278;174951;-75
2023/04/25 08:26:15;;;;;;;5.60;5.10;;;;;;;14.36;69.75;99381.74;103817;278;39342;-75
2023/04/25 08:28:51;;;;;;;5.70;5.20;;;;;;;14.18;69.80;99383.19;103683;278;39092;-75
2023/04/25 08:31:25;;;;;;;5.90;5.40;;;;;;;13.98;69.55;99383.52;103824;278;38475;-75
2023/04/25 08:34:00;;;;;;;5.40;5.00;;;;;;;13.78;69.75;99388.67;103837;278;38255;-73
2023/04/25 08:36:34;;;;;;;5.20;4.90;;;;;;;13.65;70.21;99394.82;103784;278;38230;-75
2023/04/25 08:39:09;;;;;;;5.80;5.20;;;;;;;13.65;71.13;99389.02;103813;278;38527;-76
2023/04/25 08:41:44;;;;;;;5.50;4.80;;;;;;;13.76;71.34;99393.23;103785;279;39271;-75
2023/04/25 08:44:18;;;;;;;4.80;4.40;;;;;;;13.85;71.48;99393.69;103798;278;39268;-74
2023/04/25 08:46:52;;;;;;;5.40;5.00;;;;;;;13.86;70.73;99394.45;103817;279;39602;-74
2023/04/25 08:49:25;;;;;;;5.40;4.90;;;;;;;13.76;70.15;99403.92;103771;278;38512;-74
2023/04/25 08:52:00;;;;;;;5.00;4.60;;;;;;;13.63;70.14;99410.38;103802;278;38487;-74
2023/04/25 08:54:34;;;;;;;3.80;3.50;;;;;;;13.55;70.53;99415.65;103694;278;39412;-73
2023/04/25 08:57:08;;;;;;;4.60;4.20;;;;;;;13.42;70.47;99420.48;103696;278;39443;-78
2023/04/25 08:59:45;;;;;;;4.20;3.90;;;;;;;13.37;70.91;99423.98;103814;278;39738;-76
2023/04/25 09:02:20;;;;;;;4.30;4.00;;;;;;;13.37;70.83;99424.85;103799;278;39084;-76
2023/04/25 09:04:54;;;;;;;5.10;4.60;;;;;;;13.31;70.19;99431.23;103644;278;41700;-75
2023/04/25 09:07:30;;;;;;;5.20;4.80;;;;;;;13.18;70.36;99433.06;103811;278;38268;-74
2023/04/25 09:10:04;;;;;;;5.40;4.90;;;;;;;13.10;70.46;99436.02;103787;278;39070;-75
2023/04/25 09:12:39;;;;;;;5.80;5.10;;;;;;;13.01;70.40;99440.80;103767;278;38230;-74
2023/04/25 09:15:15;;;;;;;6.50;5.90;;;;;;;12.93;70.66;99446.02;103812;278;38499;-76
2023/04/25 09:17:49;;;;;;;7.20;6.60;;;;;;;12.95;70.99;99447.50;103834;278;38565;-74
2023/04/25 09:20:24;;;;;;;7.10;6.40;;;;;;;12.97;71.45;99446.33;103825;278;38243;-74
2023/04/25 09:23:07;;;;;;;6.50;5.90;;;;;;;13.02;71.74;99446.02;103807;278;38252;-74
2023/04/25 09:25:43;;;;;;;6.50;5.90;;;;;;;13.00;70.88;99443.18;103806;278;40362;-76
2023/04/25 09:28:17;;;;;;;7.80;7.00;;;;;;;12.98;71.28;99441.54;103775;278;39981;-74
2023/04/25 09:30:51;;;;;;;7.90;7.20;;;;;;;12.89;70.75;99437.67;103805;278;39437;-76
2023/04/25 09:33:30;;;;;;;8.00;7.30;;;;;;;12.87;71.43;99437.67;103819;278;39990;-74
2023/04/25 09:36:09;;;;;;;10.50;8.70;;;;;;;12.92;71.65;99442.77;103183;278;628048;-75
2023/04/25 09:38:46;;;;;;;8.20;7.40;;;;;;;12.88;71.52;99444.59;103812;278;38781;-74
2023/04/25 09:41:25;;;;;;;7.30;6.60;;;;;;;12.87;71.66;99450.77;103776;278;38561;-74
2023/04/25 09:44:01;;;;;;;8.70;8.00;;;;;;;12.87;71.72;99452.35;103850;278;38379;-76
2023/04/25 09:46:38;;;;;;;8.70;8.00;;;;;;;12.86;71.62;99449.41;103832;278;38292;-76
2023/04/25 09:49:12;;;;;;;8.70;8.00;;;;;;;12.81;71.23;99451.35;103652;268;38691;-74
2023/04/25 09:51:50;;;;;;;9.20;8.30;;;;;;;12.68;70.96;99454.02;103825;278;40130;-76
2023/04/25 09:54:23;;;;;;;9.60;8.90;;;;;;;12.61;71.85;99459.20;103666;278;38957;-76
2023/04/25 09:56:57;;;;;;;10.80;9.60;;;;;;;12.55;72.07;99464.45;103788;278;39419;-75
2023/04/25 09:59:31;;;;;;;9.20;8.40;;;;;;;12.52;72.20;99467.08;103823;278;38810;-75
2023/04/25 10:02:05;;;;;;;9.90;9.20;;;;;;;12.52;72.29;99472.15;103796;278;38216;-74
2023/04/25 10:04:39;;;;;;;10.70;9.80;;;;;;;12.54;72.10;99473.63;103764;278;38283;-76
2023/04/25 10:07:14;;;;;;;11.30;10.40;;;;;;;12.47;72.06;99476.84;103817;278;38413;-74
2023/04/25 10:09:50;;;;;;;12.20;11.30;;;;;;;12.42;72.42;99477.69;103817;278;38502;-78
2023/04/25 10:12:29;;;;;;;11.80;10.70;;;;;;;12.40;72.83;99477.42;103834;278;38379;-76
2023/04/25 10:15:03;;;;;;;10.30;9.50;;;;;;;12.36;72.80;99481.14;103807;278;39716;-74
2023/04/25 10:17:39;;;;;;;11.50;10.40;;;;;;;12.32;73.04;99478.77;103829;278;39029;-76
2023/04/25 10:20:14;;;;;;;10.70;9.80;;;;;;;12.29;73.41;99477.73;103658;278;175111;-74
2023/04/25 10:22:53;;;;;;;11.30;10.30;;;;;;;12.29;73.48;99477.19;103804;278;38262;-74
2023/04/25 10:25:27;;;;;;;11.40;10.50;;;;;;;12.33;73.97;99478.39;103807;278;38495;-73
2023/04/25 10:28:06;;;;;;;9.80;9.00;;;;;;;12.39;74.32;99483.40;103691;278;175158;-73
2023/04/25 10:30:40;;;;;;;9.60;8.70;;;;;;;12.41;73.69;99480.70;103713;277;175123;-74
2023/04/25 10:33:26;;;;;;;9.60;8.80;;;;;;;12.35;73.59;99480.70;103804;278;40095;-74
2023/04/25 10:36:02;;;;;;;10.80;10.00;;;;;;;12.33;74.10;99480.67;103855;274;39974;-74
2023/04/25 10:38:37;;;;;;;10.10;9.30;;;;;;;12.37;74.49;99479.86;103812;278;39621;-73
2023/04/25 10:41:13;;;;;;;10.80;10.00;;;;;;;12.41;74.38;99475.47;103678;278;39403;-73
2023/04/25 10:43:47;;;;;;;10.30;9.40;;;;;;;12.39;74.38;99477.65;103808;278;38269;-75
2023/04/25 10:46:25;;;;;;;8.90;8.10;;;;;;;12.32;73.82;99478.98;103804;278;38279;-73
2023/04/25 10:49:00;;;;;;;10.00;9.30;;;;;;;12.26;73.79;99477.95;103727;279;39447;-73
2023/04/25 10:51:35;;;;;;;10.20;9.40;;;;;;;12.24;73.77;99477.33;103788;278;38327;-75
2023/04/25 10:54:10;;;;;;;11.40;10.60;;;;;;;12.20;73.70;99478.97;103694;278;38878;-76
2023/04/25 10:56:45;;;;;;;12.20;11.20;;;;;;;12.21;74.12;99475.10;103773;277;38380;-74
2023/04/25 10:59:21;;;;;;;10.60;9.80;;;;;;;12.24;74.45;99473.00;103809;278;38286;-75
2023/04/25 11:01:57;;;;;;;10.50;9.70;;;;;;;12.27;74.67;99474.02;103822;278;38423;-73
2023/04/25 11:04:34;;;;;;;10.40;9.60;;;;;;;12.29;74.52;99477.38;103788;278;38395;-73
2023/04/25 11:07:19;;;;;;;10.90;10.10;;;;;;;12.29;74.36;99477.92;103667;278;175892;-74
2023/04/25 11:09:53;;;;;;;10.50;9.70;;;;;;;12.33;74.56;99483.47;103788;278;38478;-73
2023/04/25 11:12:28;;;;;;;11.90;10.90;;;;;;;12.36;74.45;99483.10;103787;278;38243;-73
2023/04/25 11:15:09;;;;;;;10.60;9.70;;;;;;;12.42;74.92;99483.47;103802;278;39426;-76
2023/04/25 11:17:44;;;;;;;8.20;7.60;;;;;;;12.48;74.38;99482.35;103835;278;39424;-75
2023/04/25 11:20:18;;;;;;;9.20;8.40;;;;;;;12.55;74.33;99477.06;103802;278;38430;-74
2023/04/25 11:22:52;;;;;;;8.90;8.20;;;;;;;12.60;74.30;99479.16;103682;278;38386;-76
2023/04/25 11:25:27;;;;;;;9.50;8.70;;;;;;;12.71;74.62;99482.56;103807;278;38476;-74
2023/04/25 11:28:02;;;;;;;9.50;8.80;;;;;;;12.77;74.58;99483.79;103794;278;38283;-74
2023/04/25 11:30:36;;;;;;;9.50;8.80;;;;;;;12.83;74.59;99485.12;103649;279;40286;-76
2023/04/25 11:33:12;;;;;;;9.00;8.10;;;;;;;12.88;73.50;99479.95;103825;278;39713;-74
2023/04/25 11:35:46;;;;;;;9.30;8.60;;;;;;;12.88;73.20;99483.05;103828;278;37216;-73
2023/04/25 11:38:20;;;;;;;8.20;7.50;;;;;;;12.90;73.40;99483.46;103819;278;39072;-74
2023/04/25 11:40:56;;;;;;;6.60;6.00;;;;;;;12.94;73.28;99482.75;103795;278;38067;-77
2023/04/25 11:43:30;;;;;;;6.60;6.00;;;;;;;13.03;73.59;99481.65;103663;280;38963;-78
2023/04/25 11:46:04;;;;;;;7.10;6.50;;;;;;;13.10;72.50;99481.39;103831;278;39671;-77
2023/04/25 11:48:44;;;;;;;7.50;6.60;;;;;;;13.11;71.98;99479.73;103826;278;38223;-71
2023/04/25 11:51:19;;;;;;;6.80;6.20;;;;;;;13.15;71.91;99480.70;103845;278;39400;-72
2023/04/25 11:53:54;;;;;;;6.70;6.20;;;;;;;13.23;71.71;99481.27;103783;278;38231;-74
2023/04/25 11:56:29;;;;;;;7.10;6.50;;;;;;;13.29;71.13;99483.56;103786;278;38868;-74
2023/04/25 11:59:05;;;;;;;7.50;6.90;;;;;;;13.26;70.82;99479.36;103803;278;38227;-76
2023/04/25 12:01:40;;;;;;;7.20;6.50;;;;;;;13.21;70.69;99478.79;103806;278;38240;-73